Airport Name : Bradshaw AAF

Other Name : Pohakuloa

ICAO : PHSF

IATA : BSF

FAA : PBSF

Latitude : 19.760056

Longitude : -155.553717

Country : United States

Local Date and Time : 1/24/2018 1:17:00 AM

 

TAF (Terminal Aerodrome Forecast)

 

METAR (METeorological Aerodrome Report)

PHSF 241056Z AUTO 18011G17KT 10SM FEW095 12/07 A3024 RMK AO2 SLP126 WND DATA ESTMD T01190071 $

PHSF 240956Z AUTO 18012G17KT 10SM FEW130 13/04 A3025 RMK AO2 SLP121 WND DATA ESTMD T01320038 402120102 $

PHSF 240856Z AUTO 18013KT 10SM BKN120 14/04 A3026 RMK AO2 SLP133 WND DATA ESTMD T01410040 58001 $

PHSF 240756Z AUTO 17011G17KT 10SM CLR 14/04 A3028 RMK AO2 SLP144 WND DATA ESTMD T01420041 $